sensor_id;sensor_type;location;lat;lon;timestamp;P1;durP1;ratioP1;P2;durP2;ratioP2
20423;SDS011;10371;49.042;8.002;2022-11-15T00:00:39;9.40;;;8.60;;
20423;SDS011;10371;49.042;8.002;2022-11-15T00:01:39;8.60;;;7.85;;
20423;SDS011;10371;49.042;8.002;2022-11-15T00:02:40;8.90;;;8.10;;
20423;SDS011;10371;49.042;8.002;2022-11-15T00:03:40;9.05;;;8.00;;
20423;SDS011;10371;49.042;8.002;2022-11-15T00:04:41;8.60;;;7.80;;
20423;SDS011;10371;49.042;8.002;2022-11-15T00:05:41;9.00;;;8.20;;
20423;SDS011;10371;49.042;8.002;2022-11-15T00:06:42;9.20;;;8.30;;
20423;SDS011;10371;49.042;8.002;2022-11-15T00:07:42;9.20;;;8.27;;
20423;SDS011;10371;49.042;8.002;2022-11-15T00:08:42;9.70;;;8.27;;
20423;SDS011;10371;49.042;8.002;2022-11-15T00:09:43;10.20;;;8.45;;
20423;SDS011;10371;49.042;8.002;2022-11-15T00:10:49;9.43;;;8.52;;
20423;SDS011;10371;49.042;8.002;2022-11-15T00:11:54;9.37;;;8.47;;
20423;SDS011;10371;49.042;8.002;2022-11-15T00:12:54;9.52;;;8.65;;
20423;SDS011;10371;49.042;8.002;2022-11-15T00:13:55;9.50;;;8.57;;
20423;SDS011;10371;49.042;8.002;2022-11-15T00:14:56;9.70;;;8.18;;
20423;SDS011;10371;49.042;8.002;2022-11-15T00:15:56;9.10;;;8.23;;
20423;SDS011;10371;49.042;8.002;2022-11-15T00:16:58;8.73;;;7.93;;
20423;SDS011;10371;49.042;8.002;2022-11-15T00:17:58;8.52;;;7.72;;
20423;SDS011;10371;49.042;8.002;2022-11-15T00:18:58;8.87;;;7.97;;
20423;SDS011;10371;49.042;8.002;2022-11-15T00:19:58;8.87;;;8.07;;
20423;SDS011;10371;49.042;8.002;2022-11-15T00:21:10;9.55;;;8.63;;
20423;SDS011;10371;49.042;8.002;2022-11-15T00:22:12;9.70;;;8.80;;
20423;SDS011;10371;49.042;8.002;2022-11-15T00:23:12;9.18;;;8.35;;
20423;SDS011;10371;49.042;8.002;2022-11-15T00:24:12;9.00;;;8.20;;
20423;SDS011;10371;49.042;8.002;2022-11-15T00:25:12;10.23;;;9.30;;
20423;SDS011;10371;49.042;8.002;2022-11-15T00:26:13;8.93;;;8.05;;
20423;SDS011;10371;49.042;8.002;2022-11-15T00:27:14;10.52;;;9.50;;
20423;SDS011;10371;49.042;8.002;2022-11-15T00:28:15;10.07;;;9.15;;
20423;SDS011;10371;49.042;8.002;2022-11-15T00:29:15;10.88;;;9.88;;
20423;SDS011;10371;49.042;8.002;2022-11-15T00:30:15;12.02;;;10.82;;
20423;SDS011;10371;49.042;8.002;2022-11-15T00:31:15;11.65;;;10.65;;
20423;SDS011;10371;49.042;8.002;2022-11-15T00:32:16;12.25;;;11.05;;
20423;SDS011;10371;49.042;8.002;2022-11-15T00:33:16;13.57;;;12.20;;
20423;SDS011;10371;49.042;8.002;2022-11-15T00:34:17;12.00;;;10.82;;
20423;SDS011;10371;49.042;8.002;2022-11-15T00:35:17;12.88;;;11.57;;
20423;SDS011;10371;49.042;8.002;2022-11-15T00:36:18;12.35;;;11.10;;
20423;SDS011;10371;49.042;8.002;2022-11-15T00:37:18;12.45;;;11.20;;
20423;SDS011;10371;49.042;8.002;2022-11-15T00:38:18;12.80;;;11.32;;
20423;SDS011;10371;49.042;8.002;2022-11-15T00:39:19;13.00;;;11.65;;
20423;SDS011;10371;49.042;8.002;2022-11-15T00:40:19;12.88;;;11.57;;
20423;SDS011;10371;49.042;8.002;2022-11-15T00:41:19;13.77;;;12.18;;
20423;SDS011;10371;49.042;8.002;2022-11-15T00:42:19;13.13;;;11.48;;
20423;SDS011;10371;49.042;8.002;2022-11-15T00:43:20;12.00;;;10.85;;
20423;SDS011;10371;49.042;8.002;2022-11-15T00:44:20;11.98;;;10.80;;
20423;SDS011;10371;49.042;8.002;2022-11-15T00:45:20;12.38;;;11.30;;
20423;SDS011;10371;49.042;8.002;2022-11-15T00:46:20;11.15;;;10.15;;
20423;SDS011;10371;49.042;8.002;2022-11-15T00:47:21;12.05;;;10.90;;
20423;SDS011;10371;49.042;8.002;2022-11-15T00:48:21;11.75;;;10.65;;
20423;SDS011;10371;49.042;8.002;2022-11-15T00:49:21;12.48;;;11.30;;
20423;SDS011;10371;49.042;8.002;2022-11-15T00:50:22;11.82;;;10.82;;
20423;SDS011;10371;49.042;8.002;2022-11-15T00:51:22;12.10;;;11.00;;
20423;SDS011;10371;49.042;8.002;2022-11-15T00:52:22;12.38;;;11.18;;
20423;SDS011;10371;49.042;8.002;2022-11-15T00:53:22;11.95;;;10.77;;
20423;SDS011;10371;49.042;8.002;2022-11-15T00:54:23;11.50;;;10.30;;
20423;SDS011;10371;49.042;8.002;2022-11-15T00:55:23;11.00;;;9.93;;
20423;SDS011;10371;49.042;8.002;2022-11-15T00:56:23;11.32;;;10.05;;
20423;SDS011;10371;49.042;8.002;2022-11-15T00:57:23;12.38;;;11.15;;
20423;SDS011;10371;49.042;8.002;2022-11-15T00:58:24;11.88;;;10.68;;
20423;SDS011;10371;49.042;8.002;2022-11-15T00:59:24;13.35;;;10.77;;
20423;SDS011;10371;49.042;8.002;2022-11-15T01:00:24;11.20;;;10.10;;
20423;SDS011;10371;49.042;8.002;2022-11-15T01:01:25;11.30;;;10.07;;
20423;SDS011;10371;49.042;8.002;2022-11-15T01:02:25;12.07;;;10.88;;
20423;SDS011;10371;49.042;8.002;2022-11-15T01:03:25;11.40;;;10.30;;
20423;SDS011;10371;49.042;8.002;2022-11-15T01:04:25;10.93;;;9.93;;
20423;SDS011;10371;49.042;8.002;2022-11-15T01:05:26;11.23;;;10.13;;
20423;SDS011;10371;49.042;8.002;2022-11-15T01:06:26;11.18;;;10.07;;
20423;SDS011;10371;49.042;8.002;2022-11-15T01:07:27;11.02;;;10.02;;
20423;SDS011;10371;49.042;8.002;2022-11-15T01:08:27;10.90;;;9.88;;
20423;SDS011;10371;49.042;8.002;2022-11-15T01:09:27;10.60;;;9.68;;
20423;SDS011;10371;49.042;8.002;2022-11-15T01:10:27;10.90;;;9.90;;
20423;SDS011;10371;49.042;8.002;2022-11-15T01:11:28;11.25;;;10.23;;
20423;SDS011;10371;49.042;8.002;2022-11-15T01:12:28;10.95;;;9.88;;
20423;SDS011;10371;49.042;8.002;2022-11-15T01:13:29;10.93;;;9.98;;
20423;SDS011;10371;49.042;8.002;2022-11-15T01:14:31;10.32;;;9.32;;
20423;SDS011;10371;49.042;8.002;2022-11-15T01:15:31;11.43;;;10.30;;
20423;SDS011;10371;49.042;8.002;2022-11-15T01:16:32;11.98;;;9.85;;
20423;SDS011;10371;49.042;8.002;2022-11-15T01:17:33;12.10;;;10.90;;
20423;SDS011;10371;49.042;8.002;2022-11-15T01:18:33;12.20;;;10.40;;
20423;SDS011;10371;49.042;8.002;2022-11-15T01:19:33;11.05;;;9.80;;
20423;SDS011;10371;49.042;8.002;2022-11-15T01:20:34;12.32;;;10.95;;
20423;SDS011;10371;49.042;8.002;2022-11-15T01:21:34;12.25;;;10.55;;
20423;SDS011;10371;49.042;8.002;2022-11-15T01:22:34;11.48;;;10.27;;
20423;SDS011;10371;49.042;8.002;2022-11-15T01:23:35;11.27;;;10.05;;
20423;SDS011;10371;49.042;8.002;2022-11-15T01:24:35;11.35;;;10.20;;
20423;SDS011;10371;49.042;8.002;2022-11-15T01:25:35;10.27;;;9.27;;
20423;SDS011;10371;49.042;8.002;2022-11-15T01:26:36;11.07;;;10.05;;
20423;SDS011;10371;49.042;8.002;2022-11-15T01:27:36;10.27;;;9.27;;
20423;SDS011;10371;49.042;8.002;2022-11-15T01:28:37;11.48;;;10.38;;
20423;SDS011;10371;49.042;8.002;2022-11-15T01:29:38;12.77;;;11.38;;
20423;SDS011;10371;49.042;8.002;2022-11-15T01:30:39;15.95;;;12.90;;
20423;SDS011;10371;49.042;8.002;2022-11-15T01:31:39;13.82;;;12.43;;
20423;SDS011;10371;49.042;8.002;2022-11-15T01:32:39;13.25;;;11.85;;
20423;SDS011;10371;49.042;8.002;2022-11-15T01:33:40;14.18;;;12.15;;
20423;SDS011;10371;49.042;8.002;2022-11-15T01:34:41;12.60;;;11.38;;
20423;SDS011;10371;49.042;8.002;2022-11-15T01:35:41;12.40;;;10.90;;
20423;SDS011;10371;49.042;8.002;2022-11-15T01:36:42;13.77;;;11.25;;
20423;SDS011;10371;49.042;8.002;2022-11-15T01:37:42;12.13;;;10.45;;
20423;SDS011;10371;49.042;8.002;2022-11-15T01:38:42;11.48;;;10.20;;
20423;SDS011;10371;49.042;8.002;2022-11-15T01:39:42;11.18;;;10.07;;
20423;SDS011;10371;49.042;8.002;2022-11-15T01:40:43;10.27;;;9.27;;
20423;SDS011;10371;49.042;8.002;2022-11-15T01:41:43;10.98;;;9.85;;
20423;SDS011;10371;49.042;8.002;2022-11-15T01:42:43;10.05;;;9.15;;
20423;SDS011;10371;49.042;8.002;2022-11-15T01:43:44;11.35;;;10.35;;
20423;SDS011;10371;49.042;8.002;2022-11-15T01:44:51;10.68;;;9.68;;
20423;SDS011;10371;49.042;8.002;2022-11-15T01:46:39;10.35;;;9.35;;
20423;SDS011;10371;49.042;8.002;2022-11-15T01:47:33;10.15;;;9.15;;
20423;SDS011;10371;49.042;8.002;2022-11-15T01:48:37;10.80;;;9.17;;
20423;SDS011;10371;49.042;8.002;2022-11-15T01:49:38;10.00;;;9.00;;
20423;SDS011;10371;49.042;8.002;2022-11-15T01:50:44;9.10;;;8.27;;
20423;SDS011;10371;49.042;8.002;2022-11-15T01:51:44;10.43;;;9.05;;
20423;SDS011;10371;49.042;8.002;2022-11-15T01:52:45;9.85;;;8.88;;
20423;SDS011;10371;49.042;8.002;2022-11-15T01:53:46;10.07;;;9.07;;
20423;SDS011;10371;49.042;8.002;2022-11-15T01:54:50;9.35;;;8.40;;
20423;SDS011;10371;49.042;8.002;2022-11-15T01:55:56;9.90;;;8.95;;
20423;SDS011;10371;49.042;8.002;2022-11-15T01:57:04;10.45;;;8.95;;
20423;SDS011;10371;49.042;8.002;2022-11-15T01:58:08;10.00;;;9.02;;
20423;SDS011;10371;49.042;8.002;2022-11-15T01:59:08;10.27;;;9.38;;
20423;SDS011;10371;49.042;8.002;2022-11-15T02:00:10;9.70;;;8.70;;
20423;SDS011;10371;49.042;8.002;2022-11-15T02:01:14;10.10;;;9.15;;
20423;SDS011;10371;49.042;8.002;2022-11-15T02:02:15;11.52;;;9.45;;
20423;SDS011;10371;49.042;8.002;2022-11-15T02:03:16;10.60;;;9.63;;
20423;SDS011;10371;49.042;8.002;2022-11-15T02:04:17;10.50;;;9.52;;
20423;SDS011;10371;49.042;8.002;2022-11-15T02:05:22;9.93;;;8.98;;
20423;SDS011;10371;49.042;8.002;2022-11-15T02:06:23;11.02;;;9.93;;
20423;SDS011;10371;49.042;8.002;2022-11-15T02:07:23;10.05;;;9.15;;
20423;SDS011;10371;49.042;8.002;2022-11-15T02:08:24;11.75;;;10.55;;
20423;SDS011;10371;49.042;8.002;2022-11-15T02:09:25;17.42;;;14.43;;
20423;SDS011;10371;49.042;8.002;2022-11-15T02:10:26;13.57;;;12.00;;
20423;SDS011;10371;49.042;8.002;2022-11-15T02:11:28;14.07;;;11.43;;
20423;SDS011;10371;49.042;8.002;2022-11-15T02:12:28;13.38;;;11.38;;
20423;SDS011;10371;49.042;8.002;2022-11-15T02:13:28;12.85;;;11.60;;
20423;SDS011;10371;49.042;8.002;2022-11-15T02:14:29;12.18;;;10.23;;
20423;SDS011;10371;49.042;8.002;2022-11-15T02:15:33;11.50;;;10.40;;
20423;SDS011;10371;49.042;8.002;2022-11-15T02:16:53;12.90;;;10.27;;
20423;SDS011;10371;49.042;8.002;2022-11-15T02:18:15;13.02;;;11.25;;
20423;SDS011;10371;49.042;8.002;2022-11-15T02:23:54;10.80;;;9.83;;
20423;SDS011;10371;49.042;8.002;2022-11-15T02:27:59;9.75;;;8.75;;
20423;SDS011;10371;49.042;8.002;2022-11-15T02:29:11;10.13;;;9.20;;
20423;SDS011;10371;49.042;8.002;2022-11-15T02:32:59;9.57;;;8.23;;
20423;SDS011;10371;49.042;8.002;2022-11-15T02:35:37;10.05;;;8.93;;
20423;SDS011;10371;49.042;8.002;2022-11-15T02:38:42;8.82;;;8.02;;
20423;SDS011;10371;49.042;8.002;2022-11-15T02:39:55;9.13;;;8.30;;
20423;SDS011;10371;49.042;8.002;2022-11-15T02:41:07;10.63;;;9.63;;
20423;SDS011;10371;49.042;8.002;2022-11-15T02:42:14;10.68;;;9.68;;
20423;SDS011;10371;49.042;8.002;2022-11-15T02:45:02;10.18;;;8.88;;
20423;SDS011;10371;49.042;8.002;2022-11-15T02:46:08;9.53;;;8.53;;
20423;SDS011;10371;49.042;8.002;2022-11-15T02:47:13;9.95;;;9.02;;
20423;SDS011;10371;49.042;8.002;2022-11-15T02:48:17;9.97;;;8.60;;
20423;SDS011;10371;49.042;8.002;2022-11-15T02:49:19;9.98;;;8.52;;
20423;SDS011;10371;49.042;8.002;2022-11-15T02:50:21;9.50;;;8.60;;
20423;SDS011;10371;49.042;8.002;2022-11-15T02:51:25;9.13;;;8.20;;
20423;SDS011;10371;49.042;8.002;2022-11-15T02:52:26;8.77;;;8.00;;
20423;SDS011;10371;49.042;8.002;2022-11-15T02:53:26;9.43;;;7.93;;
20423;SDS011;10371;49.042;8.002;2022-11-15T02:54:31;9.17;;;8.30;;
20423;SDS011;10371;49.042;8.002;2022-11-15T02:55:36;10.33;;;8.67;;
20423;SDS011;10371;49.042;8.002;2022-11-15T02:56:39;8.97;;;8.07;;
20423;SDS011;10371;49.042;8.002;2022-11-15T02:57:57;12.93;;;10.33;;
20423;SDS011;10371;49.042;8.002;2022-11-15T03:00:15;13.70;;;11.80;;
20423;SDS011;10371;49.042;8.002;2022-11-15T03:05:51;13.73;;;11.02;;
20423;SDS011;10371;49.042;8.002;2022-11-15T03:07:05;12.80;;;9.87;;
20423;SDS011;10371;49.042;8.002;2022-11-15T03:08:31;10.57;;;9.48;;
20423;SDS011;10371;49.042;8.002;2022-11-15T03:12:16;10.50;;;9.50;;
20423;SDS011;10371;49.042;8.002;2022-11-15T03:14:58;10.82;;;9.73;;
20423;SDS011;10371;49.042;8.002;2022-11-15T03:16:18;12.05;;;9.73;;
20423;SDS011;10371;49.042;8.002;2022-11-15T03:17:28;10.68;;;9.65;;
20423;SDS011;10371;49.042;8.002;2022-11-15T03:18:38;11.17;;;10.07;;
20423;SDS011;10371;49.042;8.002;2022-11-15T03:19:53;12.53;;;11.13;;
20423;SDS011;10371;49.042;8.002;2022-11-15T03:20:56;19.75;;;16.30;;
20423;SDS011;10371;49.042;8.002;2022-11-15T03:21:59;25.65;;;19.88;;
20423;SDS011;10371;49.042;8.002;2022-11-15T03:23:04;28.00;;;21.73;;
20423;SDS011;10371;49.042;8.002;2022-11-15T03:24:07;28.92;;;22.63;;
20423;SDS011;10371;49.042;8.002;2022-11-15T03:25:10;30.05;;;22.48;;
20423;SDS011;10371;49.042;8.002;2022-11-15T03:26:15;25.55;;;20.13;;
20423;SDS011;10371;49.042;8.002;2022-11-15T03:27:21;21.77;;;18.40;;
20423;SDS011;10371;49.042;8.002;2022-11-15T03:28:28;21.02;;;18.58;;
20423;SDS011;10371;49.042;8.002;2022-11-15T03:29:38;19.25;;;17.05;;
20423;SDS011;10371;49.042;8.002;2022-11-15T03:30:43;17.30;;;15.63;;
20423;SDS011;10371;49.042;8.002;2022-11-15T03:31:47;17.20;;;15.07;;
20423;SDS011;10371;49.042;8.002;2022-11-15T03:32:52;15.63;;;14.10;;
20423;SDS011;10371;49.042;8.002;2022-11-15T03:33:55;13.45;;;12.07;;
20423;SDS011;10371;49.042;8.002;2022-11-15T03:36:07;12.55;;;11.45;;
20423;SDS011;10371;49.042;8.002;2022-11-15T03:37:08;11.47;;;10.27;;
20423;SDS011;10371;49.042;8.002;2022-11-15T03:38:23;12.07;;;10.80;;
20423;SDS011;10371;49.042;8.002;2022-11-15T03:39:25;11.73;;;10.53;;
20423;SDS011;10371;49.042;8.002;2022-11-15T03:40:29;12.97;;;10.90;;
20423;SDS011;10371;49.042;8.002;2022-11-15T03:41:37;11.70;;;10.60;;
20423;SDS011;10371;49.042;8.002;2022-11-15T03:46:24;11.97;;;10.20;;
20423;SDS011;10371;49.042;8.002;2022-11-15T03:47:32;11.23;;;9.83;;
20423;SDS011;10371;49.042;8.002;2022-11-15T03:48:47;10.07;;;9.03;;
20423;SDS011;10371;49.042;8.002;2022-11-15T03:49:52;9.50;;;8.60;;
20423;SDS011;10371;49.042;8.002;2022-11-15T03:50:58;9.93;;;8.60;;
20423;SDS011;10371;49.042;8.002;2022-11-15T03:51:59;10.87;;;8.50;;
20423;SDS011;10371;49.042;8.002;2022-11-15T03:53:01;10.13;;;9.10;;
20423;SDS011;10371;49.042;8.002;2022-11-15T03:54:03;8.83;;;8.03;;
20423;SDS011;10371;49.042;8.002;2022-11-15T03:55:05;11.50;;;8.47;;
20423;SDS011;10371;49.042;8.002;2022-11-15T03:56:07;9.97;;;8.87;;
20423;SDS011;10371;49.042;8.002;2022-11-15T03:57:07;9.60;;;8.70;;
20423;SDS011;10371;49.042;8.002;2022-11-15T03:58:07;9.88;;;8.98;;
20423;SDS011;10371;49.042;8.002;2022-11-15T03:59:08;10.67;;;9.57;;
20423;SDS011;10371;49.042;8.002;2022-11-15T04:00:08;10.40;;;9.32;;
20423;SDS011;10371;49.042;8.002;2022-11-15T04:01:10;9.60;;;8.70;;
20423;SDS011;10371;49.042;8.002;2022-11-15T04:02:11;9.97;;;9.03;;
20423;SDS011;10371;49.042;8.002;2022-11-15T04:03:12;9.98;;;8.95;;
20423;SDS011;10371;49.042;8.002;2022-11-15T04:04:12;9.10;;;8.20;;
20423;SDS011;10371;49.042;8.002;2022-11-15T04:05:12;9.53;;;8.63;;
20423;SDS011;10371;49.042;8.002;2022-11-15T04:06:12;9.95;;;9.00;;
20423;SDS011;10371;49.042;8.002;2022-11-15T04:07:13;13.90;;;9.63;;
20423;SDS011;10371;49.042;8.002;2022-11-15T04:08:13;10.35;;;9.30;;
20423;SDS011;10371;49.042;8.002;2022-11-15T04:09:13;9.97;;;8.97;;
20423;SDS011;10371;49.042;8.002;2022-11-15T04:10:14;10.73;;;9.03;;
20423;SDS011;10371;49.042;8.002;2022-11-15T04:11:14;9.80;;;8.90;;
20423;SDS011;10371;49.042;8.002;2022-11-15T04:12:14;12.60;;;9.83;;
20423;SDS011;10371;49.042;8.002;2022-11-15T04:13:30;9.47;;;8.57;;
20423;SDS011;10371;49.042;8.002;2022-11-15T04:14:30;9.75;;;8.85;;
20423;SDS011;10371;49.042;8.002;2022-11-15T04:15:31;10.33;;;9.33;;
20423;SDS011;10371;49.042;8.002;2022-11-15T04:16:31;9.90;;;8.90;;
20423;SDS011;10371;49.042;8.002;2022-11-15T04:17:31;9.90;;;8.97;;
20423;SDS011;10371;49.042;8.002;2022-11-15T04:18:31;8.93;;;8.13;;
20423;SDS011;10371;49.042;8.002;2022-11-15T04:19:32;9.73;;;8.60;;
20423;SDS011;10371;49.042;8.002;2022-11-15T04:20:50;10.77;;;9.65;;
20423;SDS011;10371;49.042;8.002;2022-11-15T04:22:09;11.45;;;9.20;;
20423;SDS011;10371;49.042;8.002;2022-11-15T04:23:28;10.80;;;9.70;;
20423;SDS011;10371;49.042;8.002;2022-11-15T04:24:48;11.48;;;10.38;;
20423;SDS011;10371;49.042;8.002;2022-11-15T04:25:51;11.17;;;10.07;;
20423;SDS011;10371;49.042;8.002;2022-11-15T04:26:53;12.07;;;10.80;;
20423;SDS011;10371;49.042;8.002;2022-11-15T04:27:53;11.03;;;9.93;;
20423;SDS011;10371;49.042;8.002;2022-11-15T04:28:53;10.43;;;9.43;;
20423;SDS011;10371;49.042;8.002;2022-11-15T04:30:12;10.73;;;9.73;;
20423;SDS011;10371;49.042;8.002;2022-11-15T04:31:12;11.00;;;10.10;;
20423;SDS011;10371;49.042;8.002;2022-11-15T04:32:13;11.63;;;10.37;;
20423;SDS011;10371;49.042;8.002;2022-11-15T04:33:13;11.03;;;10.00;;
20423;SDS011;10371;49.042;8.002;2022-11-15T04:34:14;11.90;;;10.80;;
20423;SDS011;10371;49.042;8.002;2022-11-15T04:35:14;11.10;;;10.00;;
20423;SDS011;10371;49.042;8.002;2022-11-15T04:36:14;11.40;;;10.30;;
20423;SDS011;10371;49.042;8.002;2022-11-15T04:37:33;11.87;;;10.67;;
20423;SDS011;10371;49.042;8.002;2022-11-15T04:38:34;11.10;;;10.10;;
20423;SDS011;10371;49.042;8.002;2022-11-15T04:39:35;11.17;;;10.07;;
20423;SDS011;10371;49.042;8.002;2022-11-15T04:40:36;11.40;;;10.40;;
20423;SDS011;10371;49.042;8.002;2022-11-15T04:41:37;12.07;;;10.93;;
20423;SDS011;10371;49.042;8.002;2022-11-15T04:42:37;12.17;;;10.97;;
20423;SDS011;10371;49.042;8.002;2022-11-15T04:43:37;11.63;;;10.43;;
20423;SDS011;10371;49.042;8.002;2022-11-15T04:44:38;11.20;;;10.10;;
20423;SDS011;10371;49.042;8.002;2022-11-15T04:45:38;10.70;;;9.68;;
20423;SDS011;10371;49.042;8.002;2022-11-15T04:46:38;11.40;;;10.20;;
20423;SDS011;10371;49.042;8.002;2022-11-15T04:47:38;11.97;;;10.43;;
20423;SDS011;10371;49.042;8.002;2022-11-15T04:48:39;11.63;;;10.37;;
20423;SDS011;10371;49.042;8.002;2022-11-15T04:49:39;11.63;;;10.53;;
20423;SDS011;10371;49.042;8.002;2022-11-15T04:50:39;11.73;;;10.57;;
20423;SDS011;10371;49.042;8.002;2022-11-15T04:51:40;11.23;;;10.13;;
20423;SDS011;10371;49.042;8.002;2022-11-15T04:52:41;10.63;;;9.73;;
20423;SDS011;10371;49.042;8.002;2022-11-15T04:53:49;11.93;;;10.63;;
20423;SDS011;10371;49.042;8.002;2022-11-15T04:54:50;12.47;;;11.23;;
20423;SDS011;10371;49.042;8.002;2022-11-15T04:55:50;11.40;;;10.20;;
20423;SDS011;10371;49.042;8.002;2022-11-15T04:56:50;11.40;;;10.20;;
20423;SDS011;10371;49.042;8.002;2022-11-15T04:57:57;11.53;;;10.33;;
20423;SDS011;10371;49.042;8.002;2022-11-15T04:58:59;11.17;;;10.07;;
20423;SDS011;10371;49.042;8.002;2022-11-15T04:59:59;11.38;;;10.32;;
20423;SDS011;10371;49.042;8.002;2022-11-15T05:01:09;12.43;;;10.30;;
20423;SDS011;10371;49.042;8.002;2022-11-15T05:02:11;11.47;;;10.37;;
20423;SDS011;10371;49.042;8.002;2022-11-15T05:03:12;11.23;;;10.07;;
20423;SDS011;10371;49.042;8.002;2022-11-15T05:04:30;10.60;;;9.50;;
20423;SDS011;10371;49.042;8.002;2022-11-15T05:05:31;10.87;;;9.90;;
20423;SDS011;10371;49.042;8.002;2022-11-15T05:06:31;11.30;;;10.20;;
20423;SDS011;10371;49.042;8.002;2022-11-15T05:07:31;11.10;;;10.03;;
20423;SDS011;10371;49.042;8.002;2022-11-15T05:08:32;11.43;;;10.33;;
20423;SDS011;10371;49.042;8.002;2022-11-15T05:09:32;11.98;;;10.55;;
20423;SDS011;10371;49.042;8.002;2022-11-15T05:10:33;11.25;;;10.15;;
20423;SDS011;10371;49.042;8.002;2022-11-15T05:11:33;11.55;;;10.43;;
20423;SDS011;10371;49.042;8.002;2022-11-15T05:12:34;12.03;;;10.93;;
20423;SDS011;10371;49.042;8.002;2022-11-15T05:13:35;11.15;;;10.05;;
20423;SDS011;10371;49.042;8.002;2022-11-15T05:14:35;11.37;;;10.27;;
20423;SDS011;10371;49.042;8.002;2022-11-15T05:15:35;11.88;;;10.65;;
20423;SDS011;10371;49.042;8.002;2022-11-15T05:16:36;12.63;;;11.33;;
20423;SDS011;10371;49.042;8.002;2022-11-15T05:17:37;12.88;;;11.25;;
20423;SDS011;10371;49.042;8.002;2022-11-15T05:18:37;11.87;;;10.60;;
20423;SDS011;10371;49.042;8.002;2022-11-15T05:19:40;11.70;;;10.50;;
20423;SDS011;10371;49.042;8.002;2022-11-15T05:20:40;11.80;;;10.70;;
20423;SDS011;10371;49.042;8.002;2022-11-15T05:21:41;11.53;;;10.53;;
20423;SDS011;10371;49.042;8.002;2022-11-15T05:22:41;11.70;;;10.50;;
20423;SDS011;10371;49.042;8.002;2022-11-15T05:23:41;10.90;;;9.97;;
20423;SDS011;10371;49.042;8.002;2022-11-15T05:24:42;11.60;;;10.30;;
20423;SDS011;10371;49.042;8.002;2022-11-15T05:25:42;11.67;;;10.47;;
20423;SDS011;10371;49.042;8.002;2022-11-15T05:26:42;12.03;;;10.70;;
20423;SDS011;10371;49.042;8.002;2022-11-15T05:27:43;11.10;;;10.10;;
20423;SDS011;10371;49.042;8.002;2022-11-15T05:28:43;11.18;;;10.07;;
20423;SDS011;10371;49.042;8.002;2022-11-15T05:29:44;10.83;;;9.60;;
20423;SDS011;10371;49.042;8.002;2022-11-15T05:30:44;11.10;;;10.00;;
20423;SDS011;10371;49.042;8.002;2022-11-15T05:31:45;10.90;;;9.80;;
20423;SDS011;10371;49.042;8.002;2022-11-15T05:32:45;10.23;;;9.33;;
20423;SDS011;10371;49.042;8.002;2022-11-15T05:33:45;11.03;;;10.03;;
20423;SDS011;10371;49.042;8.002;2022-11-15T05:34:46;10.18;;;9.27;;
20423;SDS011;10371;49.042;8.002;2022-11-15T05:35:48;10.30;;;9.40;;
20423;SDS011;10371;49.042;8.002;2022-11-15T05:36:54;10.55;;;9.55;;
20423;SDS011;10371;49.042;8.002;2022-11-15T05:37:55;12.40;;;10.02;;
20423;SDS011;10371;49.042;8.002;2022-11-15T05:38:55;10.48;;;9.48;;
20423;SDS011;10371;49.042;8.002;2022-11-15T05:39:55;10.32;;;9.32;;
20423;SDS011;10371;49.042;8.002;2022-11-15T05:40:56;21.97;;;20.30;;
20423;SDS011;10371;49.042;8.002;2022-11-15T05:41:58;17.70;;;16.20;;
20423;SDS011;10371;49.042;8.002;2022-11-15T05:43:05;11.73;;;10.70;;
20423;SDS011;10371;49.042;8.002;2022-11-15T05:44:06;10.65;;;9.65;;
20423;SDS011;10371;49.042;8.002;2022-11-15T05:45:09;9.37;;;8.53;;
20423;SDS011;10371;49.042;8.002;2022-11-15T05:46:09;10.55;;;9.45;;
20423;SDS011;10371;49.042;8.002;2022-11-15T05:47:10;10.07;;;9.10;;
20423;SDS011;10371;49.042;8.002;2022-11-15T05:48:14;9.63;;;8.67;;
20423;SDS011;10371;49.042;8.002;2022-11-15T05:49:15;18.70;;;16.90;;
20423;SDS011;10371;49.042;8.002;2022-11-15T05:50:19;36.42;;;32.55;;
20423;SDS011;10371;49.042;8.002;2022-11-15T05:51:19;32.43;;;29.13;;
20423;SDS011;10371;49.042;8.002;2022-11-15T05:52:23;28.73;;;25.83;;
20423;SDS011;10371;49.042;8.002;2022-11-15T05:53:27;24.53;;;22.10;;
20423;SDS011;10371;49.042;8.002;2022-11-15T05:54:28;21.40;;;19.30;;
20423;SDS011;10371;49.042;8.002;2022-11-15T05:55:28;19.17;;;17.27;;
20423;SDS011;10371;49.042;8.002;2022-11-15T05:56:29;16.73;;;15.18;;
20423;SDS011;10371;49.042;8.002;2022-11-15T05:57:29;14.68;;;13.25;;
20423;SDS011;10371;49.042;8.002;2022-11-15T05:58:31;13.90;;;12.50;;
20423;SDS011;10371;49.042;8.002;2022-11-15T05:59:32;13.63;;;12.43;;
20423;SDS011;10371;49.042;8.002;2022-11-15T06:00:34;13.93;;;12.57;;
20423;SDS011;10371;49.042;8.002;2022-11-15T06:01:34;13.43;;;12.13;;
20423;SDS011;10371;49.042;8.002;2022-11-15T06:02:34;13.15;;;12.00;;
20423;SDS011;10371;49.042;8.002;2022-11-15T06:03:35;13.83;;;12.00;;
20423;SDS011;10371;49.042;8.002;2022-11-15T06:04:35;12.32;;;11.13;;
20423;SDS011;10371;49.042;8.002;2022-11-15T06:05:35;14.33;;;11.43;;
20423;SDS011;10371;49.042;8.002;2022-11-15T06:06:36;12.63;;;11.35;;
20423;SDS011;10371;49.042;8.002;2022-11-15T06:07:36;12.52;;;11.35;;
20423;SDS011;10371;49.042;8.002;2022-11-15T06:08:36;12.87;;;11.70;;
20423;SDS011;10371;49.042;8.002;2022-11-15T06:09:36;11.45;;;10.35;;
20423;SDS011;10371;49.042;8.002;2022-11-15T06:10:37;11.10;;;10.10;;
20423;SDS011;10371;49.042;8.002;2022-11-15T06:11:37;11.25;;;10.10;;
20423;SDS011;10371;49.042;8.002;2022-11-15T06:12:37;10.93;;;9.97;;
20423;SDS011;10371;49.042;8.002;2022-11-15T06:13:37;11.05;;;9.93;;
20423;SDS011;10371;49.042;8.002;2022-11-15T06:14:38;10.77;;;9.87;;
20423;SDS011;10371;49.042;8.002;2022-11-15T06:15:38;10.48;;;9.50;;
20423;SDS011;10371;49.042;8.002;2022-11-15T06:16:38;10.15;;;9.15;;
20423;SDS011;10371;49.042;8.002;2022-11-15T06:17:39;9.03;;;8.23;;
20423;SDS011;10371;49.042;8.002;2022-11-15T06:18:39;11.05;;;9.10;;
20423;SDS011;10371;49.042;8.002;2022-11-15T06:19:39;8.73;;;7.93;;
20423;SDS011;10371;49.042;8.002;2022-11-15T06:20:40;9.47;;;8.67;;
20423;SDS011;10371;49.042;8.002;2022-11-15T06:21:40;9.85;;;8.95;;
20423;SDS011;10371;49.042;8.002;2022-11-15T06:22:40;9.87;;;9.07;;
20423;SDS011;10371;49.042;8.002;2022-11-15T06:23:40;12.18;;;10.23;;
20423;SDS011;10371;49.042;8.002;2022-11-15T06:24:41;10.77;;;9.82;;
20423;SDS011;10371;49.042;8.002;2022-11-15T06:25:41;10.68;;;9.63;;
20423;SDS011;10371;49.042;8.002;2022-11-15T06:26:41;11.67;;;10.60;;
20423;SDS011;10371;49.042;8.002;2022-11-15T06:27:41;11.90;;;10.80;;
20423;SDS011;10371;49.042;8.002;2022-11-15T06:28:42;11.63;;;10.50;;
20423;SDS011;10371;49.042;8.002;2022-11-15T06:29:42;12.03;;;10.93;;
20423;SDS011;10371;49.042;8.002;2022-11-15T06:30:42;11.30;;;10.20;;
20423;SDS011;10371;49.042;8.002;2022-11-15T06:31:43;11.43;;;10.27;;
20423;SDS011;10371;49.042;8.002;2022-11-15T06:32:43;11.57;;;10.30;;
20423;SDS011;10371;49.042;8.002;2022-11-15T06:33:43;11.10;;;10.10;;
20423;SDS011;10371;49.042;8.002;2022-11-15T06:34:43;10.90;;;9.83;;
20423;SDS011;10371;49.042;8.002;2022-11-15T06:35:44;11.33;;;10.33;;
20423;SDS011;10371;49.042;8.002;2022-11-15T06:36:44;11.23;;;10.23;;
20423;SDS011;10371;49.042;8.002;2022-11-15T06:37:44;11.20;;;9.87;;
20423;SDS011;10371;49.042;8.002;2022-11-15T06:38:45;11.63;;;10.53;;
20423;SDS011;10371;49.042;8.002;2022-11-15T06:39:45;11.43;;;10.33;;